Time;durP1;ratioP1;P1;durP2;ratioP2;P2;SDS_P1;SDS_P2;PMS_P1;PMS_P2;Temp;Humidity;BMP_temperature;BMP_pressure;BME280_temperature;BME280_humidity;BME280_pressure;Samples;Min_cycle;Max_cycle;Signal;HPM_P1;HPM_P2
2022/05/01 00:02:48;;;;;;;14.57;7.78;;;;;;;16.60;42.20;100757.03;5379132;32;34245;-91
2022/05/01 00:05:51;;;;;;;16.50;7.30;;;;;;;17.27;41.03;100747.75;5383721;32;35436;-92
2022/05/01 00:08:55;;;;;;;11.52;6.70;;;;;;;17.73;39.89;100746.72;5348106;32;35056;-92
2022/05/01 00:11:59;;;;;;;12.10;7.07;;;;;;;17.17;40.85;100749.22;5376610;32;34122;-95
2022/05/01 00:15:03;;;;;;;12.60;7.23;;;;;;;16.98;41.50;100730.06;5365438;32;34756;-92
2022/05/01 00:18:07;;;;;;;11.63;7.12;;;;;;;16.63;42.74;100754.22;5370306;32;35276;-95
2022/05/01 00:21:11;;;;;;;12.07;6.47;;;;;;;16.31;43.34;100750.75;5385838;32;44356;-95
2022/05/01 00:24:16;;;;;;;13.20;6.90;;;;;;;16.80;41.95;100742.63;5369064;32;33934;-96
2022/05/01 00:27:20;;;;;;;12.33;6.50;;;;;;;15.31;44.72;100743.88;5374713;32;32432;-93
2022/05/01 00:30:26;;;;;;;10.50;6.07;;;;;;;15.16;45.27;100748.22;5351157;32;35870;-92
2022/05/01 00:36:54;;;;;;;11.53;5.93;;;;;;;14.74;45.83;100753.91;5379644;32;34910;-95
2022/05/01 00:39:58;;;;;;;13.67;6.37;;;;;;;16.01;42.72;100756.00;5352616;32;35171;-92
2022/05/01 00:43:03;;;;;;;11.23;6.07;;;;;;;16.38;41.72;100733.56;5396808;32;33652;-93
2022/05/01 00:46:07;;;;;;;12.40;6.13;;;;;;;15.38;44.10;100758.50;5363840;32;34855;-94
2022/05/01 00:49:18;;;;;;;11.83;6.50;;;;;;;15.41;43.34;100750.41;5394968;32;37825;-93
2022/05/01 00:52:23;;;;;;;14.90;6.77;;;;;;;15.50;43.53;100755.22;5388477;32;34024;-95
2022/05/01 00:55:28;;;;;;;10.90;6.10;;;;;;;15.65;43.51;100751.78;5365046;32;34088;-96
2022/05/01 00:58:32;;;;;;;11.33;6.27;;;;;;;15.39;43.96;100752.28;5380374;32;35569;-95
2022/05/01 01:01:35;;;;;;;11.68;6.18;;;;;;;15.51;43.55;100756.91;5395029;32;32981;-92
2022/05/01 01:04:39;;;;;;;13.10;7.13;;;;;;;16.79;41.01;100748.87;5399932;32;35110;-93
2022/05/01 01:07:43;;;;;;;11.12;6.25;;;;;;;16.07;41.80;100741.53;5383329;32;43877;-94
2022/05/01 01:10:45;;;;;;;11.38;6.20;;;;;;;15.44;43.30;100752.88;5380443;32;36017;-96
2022/05/01 01:13:49;;;;;;;10.68;6.40;;;;;;;15.79;42.33;100753.69;5365487;32;34093;-95
2022/05/01 01:16:53;;;;;;;11.70;6.93;;;;;;;15.51;43.10;100756.91;5354522;32;33883;-93
2022/05/01 01:19:57;;;;;;;11.50;6.50;;;;;;;15.33;43.32;100760.56;5401096;32;35393;-96
2022/05/01 01:23:01;;;;;;;12.80;7.07;;;;;;;15.23;43.70;100735.50;5368415;32;34855;-96
2022/05/01 01:26:06;;;;;;;11.00;6.60;;;;;;;15.31;43.77;100757.12;5402902;32;33348;-94
2022/05/01 01:32:39;;;;;;;11.10;5.80;;;;;;;15.97;42.20;100757.09;5386788;32;35147;-95
2022/05/01 01:35:47;;;;;;;12.90;6.00;;;;;;;15.36;43.87;100757.75;5384162;32;43066;-90
2022/05/01 01:38:50;;;;;;;10.80;5.63;;;;;;;15.46;43.56;100751.03;5389755;32;32801;-94
2022/05/01 01:41:55;;;;;;;10.40;5.97;;;;;;;15.73;42.77;100751.38;5399040;32;34576;-95
2022/05/01 01:44:59;;;;;;;14.77;6.40;;;;;;;15.39;43.59;100744.31;5383351;32;37316;-93
2022/05/01 01:48:13;;;;;;;12.50;5.60;;;;;;;16.08;42.30;100757.34;5382640;32;33677;-93
2022/05/01 01:51:16;;;;;;;10.07;6.03;;;;;;;15.81;42.76;100750.94;5381886;32;44473;-92
2022/05/01 01:54:20;;;;;;;11.02;5.90;;;;;;;15.01;45.00;100757.81;5376166;32;34002;-96
2022/05/01 01:57:22;;;;;;;11.20;5.53;;;;;;;15.01;45.05;100749.03;5371248;32;34167;-93
2022/05/01 02:00:26;;;;;;;11.50;5.90;;;;;;;14.91;45.43;100745.97;5361304;32;34783;-93
2022/05/01 02:03:31;;;;;;;11.80;5.60;;;;;;;16.08;42.95;100754.69;5372925;32;34686;-95
2022/05/01 02:06:35;;;;;;;10.83;5.60;;;;;;;16.23;42.42;100753.84;5372296;32;33161;-94
2022/05/01 02:09:38;;;;;;;8.70;5.47;;;;;;;15.74;42.66;100754.88;5382328;32;34621;-93
2022/05/01 02:12:41;;;;;;;10.07;5.50;;;;;;;15.49;43.46;100750.84;5382755;32;45808;-93
2022/05/01 02:15:45;;;;;;;11.23;5.68;;;;;;;15.80;42.63;100739.50;5355508;32;34895;-94
2022/05/01 02:18:49;;;;;;;10.53;5.90;;;;;;;15.76;43.10;100745.03;5398542;32;34799;-92
2022/05/01 02:21:54;;;;;;;10.70;5.97;;;;;;;15.27;44.01;100737.91;5375351;32;34107;-95
2022/05/01 02:24:58;;;;;;;8.20;5.07;;;;;;;15.42;44.09;100741.53;5381412;32;33720;-96
2022/05/01 02:28:01;;;;;;;11.25;5.53;;;;;;;15.18;44.55;100743.69;5352307;32;34221;-96
2022/05/01 02:31:05;;;;;;;9.95;5.10;;;;;;;14.89;45.13;100742.56;5357928;32;34222;-95
2022/05/01 02:34:10;;;;;;;10.63;5.70;;;;;;;15.14;44.72;100748.28;5405589;32;35429;-92
2022/05/01 02:37:13;;;;;;;9.73;5.30;;;;;;;16.22;42.14;100738.84;5362202;32;44744;-96
2022/05/01 02:40:16;;;;;;;9.15;5.43;;;;;;;15.13;44.89;100741.28;5376406;32;35574;-93
2022/05/01 02:43:18;;;;;;;10.63;5.30;;;;;;;14.75;46.14;100747.66;5372082;32;32843;-95
2022/05/01 02:46:21;;;;;;;9.90;5.53;;;;;;;14.79;46.37;100742.16;5384774;32;34292;-95
2022/05/01 02:49:26;;;;;;;11.63;5.70;;;;;;;15.17;45.66;100749.91;5376078;32;33290;-92
2022/05/01 02:52:30;;;;;;;11.38;6.12;;;;;;;15.14;45.79;100739.50;5344409;32;33531;-93
2022/05/01 02:55:32;;;;;;;14.75;6.40;;;;;;;14.82;46.53;100751.75;5375272;32;34080;-95
2022/05/01 02:58:36;;;;;;;10.68;5.87;;;;;;;15.87;43.83;100746.16;5364917;32;35157;-96
2022/05/01 03:01:40;;;;;;;11.93;5.73;;;;;;;14.78;46.40;100744.88;5399698;32;36023;-94
2022/05/01 03:04:45;;;;;;;10.67;6.00;;;;;;;14.61;47.09;100749.22;5344295;32;43820;-95
2022/05/01 03:07:49;;;;;;;10.53;5.30;;;;;;;15.73;44.33;100742.56;5376427;32;32414;-91
2022/05/01 03:10:52;;;;;;;10.60;5.87;;;;;;;15.94;43.25;100747.53;5371359;32;35212;-95
2022/05/01 03:13:55;;;;;;;11.63;5.40;;;;;;;16.13;42.76;100744.69;5365328;32;33237;-94
2022/05/01 03:17:00;;;;;;;11.13;6.00;;;;;;;15.06;45.09;100745.16;5376833;32;35965;-92
2022/05/01 03:23:26;;;;;;;11.17;5.50;;;;;;;14.42;47.39;100748.41;5394615;32;35092;-93
2022/05/01 03:26:30;;;;;;;9.60;5.53;;;;;;;15.68;44.37;100753.41;5358815;32;34206;-96
2022/05/01 03:29:34;;;;;;;10.93;5.80;;;;;;;14.99;45.41;100749.06;5373672;32;35758;-95
2022/05/01 03:32:38;;;;;;;10.20;5.93;;;;;;;14.73;46.47;100754.84;5386938;32;35343;-96
2022/05/01 03:35:43;;;;;;;10.23;6.13;;;;;;;14.73;46.82;100758.34;5364533;32;43658;-93
2022/05/01 03:38:45;;;;;;;11.55;5.90;;;;;;;14.86;46.02;100742.69;5399731;32;34960;-95
2022/05/01 03:41:48;;;;;;;11.60;5.43;;;;;;;15.05;45.73;100747.91;5391198;32;34436;-91
2022/05/01 03:44:50;;;;;;;10.52;6.45;;;;;;;15.12;45.50;100759.88;5381448;32;33872;-91
2022/05/01 03:47:54;;;;;;;13.52;6.10;;;;;;;15.24;45.32;100751.31;5377850;32;36239;-96
2022/05/01 03:50:58;;;;;;;9.50;5.80;;;;;;;16.15;42.17;100742.81;5389140;32;34055;-93
2022/05/01 03:54:03;;;;;;;13.17;6.10;;;;;;;15.08;44.91;100756.56;5400160;32;34683;-96
2022/05/01 03:57:08;;;;;;;10.37;5.93;;;;;;;14.34;47.17;100767.28;5366685;32;34561;-95
2022/05/01 04:00:18;;;;;;;10.63;6.00;;;;;;;15.03;45.58;100766.53;5398082;32;43129;-96
2022/05/01 04:03:21;;;;;;;12.15;6.07;;;;;;;14.96;45.70;100762.47;5368259;32;35101;-93
2022/05/01 04:06:24;;;;;;;11.37;6.20;;;;;;;14.78;46.33;100766.06;5370187;32;33863;-95
2022/05/01 04:09:29;;;;;;;9.60;6.13;;;;;;;15.70;44.36;100768.28;5391487;32;33530;-95
2022/05/01 04:12:41;;;;;;;20.05;9.90;;;;;;;16.46;42.10;100764.94;5374946;32;33235;-93
2022/05/01 04:15:44;;;;;;;11.07;6.20;;;;;;;16.27;42.49;100780.19;5376837;32;43594;-96
2022/05/01 04:18:48;;;;;;;10.48;5.87;;;;;;;16.09;42.66;100784.72;5385405;32;33019;-93
2022/05/01 04:21:51;;;;;;;10.55;5.80;;;;;;;14.99;44.86;100786.13;5366858;32;35918;-95
2022/05/01 04:24:57;;;;;;;10.53;6.30;;;;;;;15.14;45.07;100785.38;5365349;32;34087;-93
2022/05/01 04:28:04;;;;;;;11.77;6.20;;;;;;;14.51;47.13;100781.53;5360647;32;36470;-93
2022/05/01 04:31:10;;;;;;;12.83;6.90;;;;;;;14.76;46.58;100782.03;5394505;32;36868;-93
2022/05/01 04:34:13;;;;;;;9.52;5.82;;;;;;;15.34;45.32;100781.69;5392179;32;34858;-96
2022/05/01 04:37:17;;;;;;;9.27;5.53;;;;;;;16.33;42.95;100783.34;5403415;32;33261;-95
2022/05/01 04:40:20;;;;;;;9.43;5.30;;;;;;;15.90;44.41;100791.03;5378434;32;33752;-94
2022/05/01 04:43:26;;;;;;;10.37;6.20;;;;;;;15.80;44.92;100794.28;5381179;32;34739;-95
2022/05/01 04:46:32;;;;;;;11.40;5.93;;;;;;;15.85;44.58;100801.06;5377014;32;37276;-96
2022/05/01 04:49:36;;;;;;;12.10;5.83;;;;;;;14.82;47.14;100799.37;5372637;32;34422;-93
2022/05/01 04:52:39;;;;;;;;;;;;;;;15.75;44.78;100785.72;5400136;32;34882;-96
2022/05/01 04:55:44;;;;;;;15.50;5.82;;;;;;;15.01;46.78;100805.47;5383216;32;44140;-93
2022/05/01 04:58:47;;;;;;;11.83;6.20;;;;;;;14.82;47.79;100794.09;5392729;32;34323;-93
2022/05/01 05:01:50;;;;;;;;;;;;;;;15.53;46.17;100786.84;5390776;32;34062;-93
2022/05/01 05:04:53;;;;;;;11.88;6.15;;;;;;;16.06;45.06;100791.06;5383169;32;34188;-91
2022/05/01 05:11:20;;;;;;;9.40;6.03;;;;;;;16.59;43.73;100789.81;5397758;32;33616;-93
2022/05/01 05:14:25;;;;;;;10.77;6.20;;;;;;;15.63;45.78;100803.13;5389889;32;34203;-93
2022/05/01 05:17:32;;;;;;;11.27;6.33;;;;;;;16.11;45.09;100807.56;5367124;32;35453;-94
2022/05/01 05:20:35;;;;;;;10.27;6.00;;;;;;;15.84;45.83;100803.75;5386520;32;35763;-91
2022/05/01 05:23:38;;;;;;;12.37;6.30;;;;;;;15.61;46.54;100810.28;5380842;32;33157;-96
2022/05/01 05:26:43;;;;;;;12.53;6.17;;;;;;;15.86;45.81;100809.84;5364804;32;44096;-92
2022/05/01 05:29:47;;;;;;;11.37;6.20;;;;;;;16.12;45.30;100816.37;5388796;32;34220;-95
2022/05/01 05:32:51;;;;;;;11.63;6.10;;;;;;;16.96;43.14;100799.19;5365800;32;33731;-96
2022/05/01 05:35:57;;;;;;;12.03;6.60;;;;;;;16.12;44.29;100817.25;5366778;32;34762;-96
2022/05/01 05:39:01;;;;;;;11.73;6.00;;;;;;;15.98;44.09;100810.03;5398611;32;34329;-95
2022/05/01 05:42:04;;;;;;;12.97;6.37;;;;;;;15.89;44.51;100820.28;5377838;32;35962;-91
2022/05/01 05:45:08;;;;;;;11.33;6.07;;;;;;;15.90;43.85;100816.69;5401208;32;35120;-95
2022/05/01 05:48:12;;;;;;;12.10;6.87;;;;;;;16.47;42.65;100817.03;5374271;32;43186;-92
2022/05/01 05:51:15;;;;;;;11.82;5.70;;;;;;;16.82;41.69;100822.19;5385883;32;33577;-96
2022/05/01 05:54:18;;;;;;;11.00;5.80;;;;;;;17.33;40.09;100821.75;5373726;32;34545;-95
2022/05/01 05:57:20;;;;;;;12.82;6.30;;;;;;;16.50;40.80;100823.06;5375408;32;35323;-91
2022/05/01 06:00:23;;;;;;;12.32;6.07;;;;;;;16.95;39.59;100823.19;5367900;32;34458;-92
2022/05/01 06:03:26;;;;;;;10.52;6.10;;;;;;;17.43;38.19;100822.03;5367128;32;34158;-96
2022/05/01 06:06:30;;;;;;;9.50;5.30;;;;;;;17.53;38.22;100822.34;5382922;32;34966;-96
2022/05/01 06:09:33;;;;;;;10.40;6.23;;;;;;;16.52;38.87;100836.22;5364550;32;32903;-96
2022/05/01 06:12:43;;;;;;;11.68;6.05;;;;;;;16.04;40.70;100818.62;5400293;32;35995;-93
2022/05/01 06:15:53;;;;;;;12.02;6.47;;;;;;;16.71;39.75;100838.72;5376622;32;33941;-92
2022/05/01 06:18:56;;;;;;;12.37;5.95;;;;;;;17.42;38.42;100820.31;5390021;32;34207;-92
2022/05/01 06:22:03;;;;;;;11.52;6.15;;;;;;;18.40;36.27;100828.34;5396418;32;35684;-96
2022/05/01 06:25:07;;;;;;;10.43;5.97;;;;;;;18.70;36.01;100822.03;5375448;32;34041;-91
2022/05/01 06:28:10;;;;;;;11.05;5.95;;;;;;;19.79;33.72;100827.97;5398413;32;34074;-91
2022/05/01 06:31:15;;;;;;;10.88;6.05;;;;;;;17.86;37.76;100822.09;5376396;32;33579;-95
2022/05/01 06:34:18;;;;;;;11.70;6.00;;;;;;;18.38;36.41;100819.63;5398201;32;34107;-94
2022/05/01 06:37:21;;;;;;;11.38;5.95;;;;;;;18.83;35.87;100822.91;5375571;32;33411;-92
2022/05/01 06:40:26;;;;;;;12.23;6.80;;;;;;;18.99;35.71;100829.87;5371411;32;33090;-96
2022/05/01 06:43:29;;;;;;;9.77;6.03;;;;;;;20.11;33.42;100828.34;5376825;32;34660;-91
2022/05/01 06:46:34;;;;;;;9.73;5.93;;;;;;;20.59;33.10;100828.41;5378461;32;34810;-93
2022/05/01 06:49:41;;;;;;;10.85;6.57;;;;;;;18.78;36.87;100843.66;5385728;32;45630;-95
2022/05/01 06:52:45;;;;;;;13.65;7.22;;;;;;;19.35;35.74;100832.72;5375163;32;43271;-95
2022/05/01 06:55:48;;;;;;;9.98;6.30;;;;;;;19.72;35.21;100828.38;5382882;32;35669;-92
2022/05/01 06:58:53;;;;;;;10.48;6.03;;;;;;;19.24;35.75;100835.25;5399078;32;36623;-95
2022/05/01 07:01:56;;;;;;;9.25;6.07;;;;;;;19.89;35.06;100829.00;5368157;32;34112;-90
2022/05/01 07:04:59;;;;;;;;;;;;;;;19.52;35.53;100812.06;5380194;32;34151;-91
2022/05/01 07:08:02;;;;;;;11.10;5.85;;;;;;;20.44;34.21;100825.88;5384469;32;34793;-91
2022/05/01 07:11:05;;;;;;;9.45;5.85;;;;;;;20.79;33.26;100807.25;5396920;32;34727;-92
2022/05/01 07:14:09;;;;;;;9.48;5.45;;;;;;;21.19;32.91;100814.94;5381529;32;36063;-92
2022/05/01 07:17:15;;;;;;;8.35;5.78;;;;;;;23.54;28.94;100818.97;5359330;32;42800;-95
2022/05/01 07:20:17;;;;;;;12.90;6.30;;;;;;;21.41;32.02;100815.97;5363928;32;33985;-95
2022/05/01 07:23:22;;;;;;;9.27;5.87;;;;;;;21.21;32.81;100823.69;5361576;32;34809;-92
2022/05/01 07:26:33;;;;;;;9.18;5.80;;;;;;;21.04;33.23;100816.09;5370223;32;148055;-95
2022/05/01 07:29:43;;;;;;;10.20;5.53;;;;;;;20.52;34.12;100814.66;5388326;32;44784;-92
2022/05/01 07:32:47;;;;;;;11.70;6.28;;;;;;;21.83;32.13;100807.25;5379666;32;34210;-94
2022/05/01 07:35:51;;;;;;;10.45;5.37;;;;;;;22.56;30.82;100803.16;5370134;32;34181;-92
2022/05/01 07:38:54;;;;;;;9.80;4.90;;;;;;;22.21;31.45;100807.84;5366822;32;34340;-95
2022/05/01 07:41:57;;;;;;;11.57;4.80;;;;;;;22.28;31.27;100798.34;5398951;32;34100;-93
2022/05/01 07:45:01;;;;;;;8.13;5.18;;;;;;;25.05;27.59;100777.66;5361108;32;34456;-91
2022/05/01 07:48:04;;;;;;;10.38;5.32;;;;;;;27.42;23.86;100775.81;5398883;32;33193;-95
2022/05/01 07:51:07;;;;;;;8.07;4.90;;;;;;;26.90;24.59;100791.91;5372306;32;34802;-93
2022/05/01 07:54:10;;;;;;;7.93;4.40;;;;;;;24.03;28.38;100787.88;5382092;32;43621;-92
2022/05/01 07:57:20;;;;;;;7.53;4.70;;;;;;;27.88;22.87;100774.53;5386908;32;32551;-93
2022/05/01 08:00:24;;;;;;;8.60;4.45;;;;;;;27.59;23.06;100785.69;5372909;32;35987;-94
2022/05/01 08:07:00;;;;;;;9.93;3.97;;;;;;;28.76;21.75;100776.81;5382448;32;33932;-96
2022/05/01 08:10:04;;;;;;;6.22;3.80;;;;;;;29.07;21.39;100772.44;5375570;32;35789;-94
2022/05/01 08:13:07;;;;;;;6.53;3.90;;;;;;;27.83;22.75;100776.06;5386099;32;35480;-95
2022/05/01 08:16:10;;;;;;;10.23;4.68;;;;;;;25.19;26.79;100774.53;5359164;32;43594;-93
2022/05/01 08:22:35;;;;;;;7.53;3.65;;;;;;;27.78;23.53;100757.62;5368907;32;34764;-94
2022/05/01 08:25:40;;;;;;;9.25;3.87;;;;;;;29.28;21.30;100736.69;5390027;32;34407;-96
2022/05/01 08:28:42;;;;;;;6.62;3.90;;;;;;;28.16;22.56;100758.09;5335352;32;43926;-95
2022/05/01 08:31:45;;;;;;;6.53;3.62;;;;;;;27.17;24.37;100750.50;5364323;32;34927;-93
2022/05/01 08:34:47;;;;;;;7.60;3.75;;;;;;;25.93;25.43;100753.03;5399144;32;34205;-94
2022/05/01 08:37:51;;;;;;;5.50;3.12;;;;;;;27.20;24.14;100750.22;5379235;32;34020;-95
2022/05/01 08:40:57;;;;;;;2.92;2.20;;;;;;;27.29;23.32;100751.94;5398018;32;35005;-95
2022/05/01 08:44:05;;;;;;;8.20;2.65;;;;;;;30.69;18.66;100748.41;5375227;32;36077;-96
2022/05/01 08:47:35;;;;;;;2.95;2.40;;;;;;;28.78;20.28;100732.31;5385833;32;33015;-95
2022/05/01 08:50:39;;;;;;;4.68;2.28;;;;;;;30.57;18.92;100738.13;5383849;32;33660;-95
2022/05/01 08:53:56;;;;;;;4.32;2.03;;;;;;;30.16;19.02;100720.28;5369344;32;35296;-94
2022/05/01 08:57:07;;;;;;;3.50;1.73;;;;;;;28.83;20.42;100719.16;5404290;32;36013;-95
2022/05/01 09:00:10;;;;;;;4.12;2.25;;;;;;;28.69;19.98;100716.28;5371528;32;33715;-94
2022/05/01 09:03:19;;;;;;;3.30;2.25;;;;;;;29.75;19.00;100726.91;5387066;32;45633;-96
2022/05/01 09:06:22;;;;;;;5.12;2.37;;;;;;;30.15;18.77;100721.31;5391502;32;33476;-95
2022/05/01 09:09:25;;;;;;;4.35;2.37;;;;;;;28.88;20.11;100711.37;5397625;32;34497;-91
2022/05/01 09:12:52;;;;;;;4.30;2.53;;;;;;;28.82;20.26;100716.62;5426068;32;34908;-96
2022/05/01 09:16:14;;;;;;;7.10;3.10;;;;;;;28.45;20.39;100707.16;5362066;32;34600;-93
2022/05/01 09:19:31;;;;;;;5.62;2.62;;;;;;;29.36;18.80;100701.47;5387103;32;43839;-94
2022/05/01 09:22:53;;;;;;;2.90;2.03;;;;;;;30.14;17.71;100706.09;5399412;32;35619;-93
2022/05/01 09:26:03;;;;;;;3.72;2.00;;;;;;;29.32;18.58;100702.00;5374468;32;35767;-95
2022/05/01 09:29:10;;;;;;;;;;;;;;;29.73;17.31;100705.41;5375297;32;45176;-96
2022/05/01 09:32:12;;;;;;;;;;;;;;;30.71;15.88;100675.81;5361730;32;35128;-93
2022/05/01 09:35:37;;;;;;;2.90;1.95;;;;;;;28.48;18.47;100706.81;5384022;32;34496;-96
2022/05/01 09:38:43;;;;;;;4.28;2.25;;;;;;;28.25;18.99;100698.50;5387526;32;36043;-93
2022/05/01 09:41:49;;;;;;;4.45;2.15;;;;;;;29.81;16.84;100705.37;5371028;32;35069;-94
2022/05/01 09:45:12;;;;;;;3.83;2.00;;;;;;;31.47;15.39;100691.97;5391166;32;33976;-91
2022/05/01 09:48:20;;;;;;;3.03;2.10;;;;;;;31.97;15.03;100703.94;5368071;32;43131;-94
2022/05/01 09:51:23;;;;;;;3.67;2.37;;;;;;;32.92;14.18;100687.28;5368824;32;34614;-91
2022/05/01 09:54:27;;;;;;;3.70;2.65;;;;;;;27.99;18.50;100706.72;5388560;32;36932;-94
2022/05/01 09:57:31;;;;;;;3.62;2.75;;;;;;;31.45;15.40;100694.91;5361624;32;34994;-94
2022/05/01 10:00:41;;;;;;;4.72;2.20;;;;;;;32.15;14.50;100685.31;5387371;32;34255;-93
2022/05/01 10:03:47;;;;;;;3.62;2.20;;;;;;;33.33;13.59;100684.59;5369065;32;44518;-94
2022/05/01 10:06:54;;;;;;;6.32;2.60;;;;;;;32.63;14.42;100684.72;5369028;32;33980;-94
2022/05/01 10:09:59;;;;;;;2.83;2.03;;;;;;;31.05;16.15;100688.03;5398822;32;35332;-96
2022/05/01 10:13:03;;;;;;;3.00;2.22;;;;;;;30.11;16.84;100689.31;5372297;32;34905;-94
2022/05/01 10:16:26;;;;;;;3.08;2.10;;;;;;;29.29;17.58;100683.41;5373908;32;35040;-91
2022/05/01 10:19:31;;;;;;;4.30;2.20;;;;;;;30.68;16.35;100680.78;5376538;32;34245;-93
2022/05/01 10:22:36;;;;;;;3.47;2.00;;;;;;;29.76;17.20;100663.63;5372012;32;34488;-91
2022/05/01 10:26:15;;;;;;;3.90;2.45;;;;;;;27.34;19.71;100684.84;5349994;32;44505;-95
2022/05/01 10:33:34;;;;;;;4.12;2.58;;;;;;;27.19;19.47;100668.44;5384171;32;34160;-92
2022/05/01 10:36:45;;;;;;;6.82;2.60;;;;;;;28.67;18.07;100662.38;5398957;32;34744;-96
2022/05/01 10:39:49;;;;;;;4.40;2.67;;;;;;;27.87;18.75;100672.91;5381690;32;44457;-91
2022/05/01 10:42:53;;;;;;;4.50;2.92;;;;;;;29.56;17.41;100650.50;5374515;32;34084;-91
2022/05/01 10:46:00;;;;;;;5.57;2.58;;;;;;;30.27;16.58;100650.41;5360914;32;36462;-93
2022/05/01 10:49:05;;;;;;;3.75;2.55;;;;;;;30.44;16.05;100651.97;5392394;32;32850;-93
2022/05/01 10:52:18;;;;;;;5.18;2.58;;;;;;;30.96;15.36;100646.56;5373917;32;35196;-90
2022/05/01 10:55:21;;;;;;;5.32;3.03;;;;;;;27.80;18.59;100653.81;5379125;32;34034;-90
2022/05/01 10:58:30;;;;;;;7.62;2.75;;;;;;;29.47;16.98;100653.38;5387196;32;36261;-91
2022/05/01 11:01:52;;;;;;;6.40;3.20;;;;;;;27.55;19.25;100649.34;5380879;32;35370;-91
2022/05/01 11:04:57;;;;;;;5.57;2.67;;;;;;;26.02;21.15;100648.06;5353978;32;34643;-91
2022/05/01 11:08:01;;;;;;;5.20;3.10;;;;;;;25.68;21.44;100648.72;5377458;32;33173;-96
2022/05/01 11:11:07;;;;;;;5.93;3.83;;;;;;;26.51;20.06;100645.84;5368109;32;35864;-91
2022/05/01 11:14:13;;;;;;;7.18;2.92;;;;;;;26.46;20.19;100640.94;5371282;32;43752;-90
2022/05/01 11:17:15;;;;;;;5.72;3.40;;;;;;;25.60;21.39;100637.84;5367718;32;34042;-91
2022/05/01 11:20:27;;;;;;;7.82;3.40;;;;;;;27.69;18.29;100640.63;5388586;32;34885;-94
2022/05/01 11:23:33;;;;;;;4.68;3.00;;;;;;;27.02;19.00;100630.69;5371503;32;36445;-95
2022/05/01 11:26:36;;;;;;;4.97;2.95;;;;;;;28.82;16.84;100638.19;5357870;32;34267;-95
2022/05/01 11:29:38;;;;;;;6.03;3.35;;;;;;;28.98;16.42;100630.06;5389199;32;32844;-93
2022/05/01 11:32:43;;;;;;;4.50;2.53;;;;;;;26.54;19.16;100627.53;5372660;32;44508;-90
2022/05/01 11:36:02;;;;;;;5.12;3.30;;;;;;;28.25;17.04;100616.56;5379839;32;34744;-92
2022/05/01 11:39:05;;;;;;;7.05;3.20;;;;;;;29.39;15.98;100613.66;5361394;32;35053;-90
2022/05/01 11:42:32;;;;;;;4.65;2.92;;;;;;;30.44;15.10;100603.16;5371857;32;35893;-90
2022/05/01 11:45:35;;;;;;;5.65;2.83;;;;;;;30.59;14.87;100600.44;5373080;32;34318;-95
2022/05/01 11:48:38;;;;;;;4.15;2.72;;;;;;;32.01;13.66;100596.47;5370903;32;35197;-95
2022/05/01 11:51:44;;;;;;;4.28;2.60;;;;;;;29.45;15.57;100604.84;5395673;32;42846;-93
2022/05/01 11:55:14;;;;;;;3.55;2.42;;;;;;;28.07;16.64;100601.34;5368405;32;34869;-96
2022/05/01 12:05:10;;;;;;;5.60;3.37;;;;;;;30.22;15.10;100595.91;5361480;32;36542;-92
2022/05/01 12:08:14;;;;;;;6.28;2.90;;;;;;;30.08;15.27;100589.37;5369982;32;46044;-90
2022/05/01 12:11:27;;;;;;;7.85;2.70;;;;;;;29.48;15.80;100580.09;5371263;32;34790;-90
2022/05/01 12:14:30;;;;;;;5.15;2.75;;;;;;;30.12;15.29;100566.34;5352738;32;34588;-92
2022/05/01 12:17:39;;;;;;;3.85;2.67;;;;;;;30.88;14.46;100567.13;5388490;32;34447;-92
2022/05/01 12:20:42;;;;;;;5.15;2.70;;;;;;;27.27;17.85;100578.56;5374317;32;42941;-94
2022/05/01 12:23:48;;;;;;;5.15;2.67;;;;;;;29.74;16.00;100568.13;5378225;32;34334;-92
2022/05/01 12:26:54;;;;;;;5.75;3.20;;;;;;;30.31;14.75;100557.69;5367309;32;36020;-94
2022/05/01 12:30:01;;;;;;;4.20;2.42;;;;;;;27.17;17.85;100567.91;5371953;32;34359;-90
2022/05/01 12:33:03;;;;;;;9.05;2.58;;;;;;;29.31;15.93;100562.28;5374299;32;34825;-93
2022/05/01 12:36:06;;;;;;;3.08;2.35;;;;;;;27.81;17.46;100554.75;5369273;32;35238;-90
2022/05/01 12:39:08;;;;;;;6.20;2.97;;;;;;;28.76;16.50;100560.44;5394971;32;33365;-89
2022/05/01 12:45:41;;;;;;;5.65;2.70;;;;;;;26.57;19.29;100556.28;5379014;32;34819;-94
2022/05/01 12:48:44;;;;;;;5.00;2.97;;;;;;;26.93;19.25;100551.59;5375933;32;44034;-96
2022/05/01 12:51:47;;;;;;;4.35;2.70;;;;;;;27.25;19.28;100545.53;5379128;32;34874;-93
2022/05/01 12:55:08;;;;;;;5.07;2.80;;;;;;;26.49;19.96;100548.16;5398916;32;34386;-95
2022/05/01 12:58:11;;;;;;;5.35;2.60;;;;;;;26.75;19.47;100542.75;5380439;32;44068;-95
2022/05/01 13:01:26;;;;;;;6.35;3.42;;;;;;;26.55;19.70;100531.34;5379245;32;34597;-96
2022/05/01 13:04:30;;;;;;;4.37;2.90;;;;;;;24.92;22.15;100535.13;5390337;32;34652;-92
2022/05/01 13:07:36;;;;;;;7.15;3.37;;;;;;;23.86;23.47;100530.84;5385534;32;34933;-91
2022/05/01 13:10:39;;;;;;;5.65;3.10;;;;;;;24.99;21.90;100523.66;5388632;32;34798;-93
2022/05/01 13:13:53;;;;;;;4.50;2.70;;;;;;;24.96;21.88;100510.47;5365173;32;44378;-90
2022/05/01 13:17:09;;;;;;;4.97;2.58;;;;;;;25.12;21.84;100521.47;5384328;32;35244;-94
2022/05/01 13:20:12;;;;;;;4.07;2.60;;;;;;;25.36;22.07;100512.81;5384546;32;44782;-90
2022/05/01 13:23:14;;;;;;;5.75;2.85;;;;;;;26.40;20.69;100507.66;5370480;32;34867;-89
2022/05/01 13:26:18;;;;;;;6.60;3.70;;;;;;;26.33;20.82;100498.50;5376102;32;34541;-91
2022/05/01 13:29:23;;;;;;;5.25;2.80;;;;;;;25.41;21.90;100495.38;5371609;32;34889;-93
2022/05/01 13:32:25;;;;;;;6.55;2.70;;;;;;;25.60;21.71;100488.00;5388007;32;34858;-91
2022/05/01 13:35:28;;;;;;;6.85;2.95;;;;;;;25.10;21.83;100493.03;5360988;32;36300;-94
2022/05/01 13:38:33;;;;;;;7.40;3.03;;;;;;;25.00;22.29;100494.91;5373920;32;33105;-94
2022/05/01 13:45:02;;;;;;;4.53;2.80;;;;;;;25.12;22.33;100486.53;5341668;32;35239;-89
2022/05/01 13:48:05;;;;;;;5.82;3.00;;;;;;;25.93;21.07;100485.59;5380710;32;34335;-96
2022/05/01 13:51:08;;;;;;;5.05;2.85;;;;;;;25.78;21.22;100471.88;5370538;32;35266;-90
2022/05/01 13:54:10;;;;;;;;;;;;;;;24.27;22.91;100471.41;5378404;32;44632;-94
2022/05/01 13:57:14;;;;;;;5.37;2.97;;;;;;;24.76;22.79;100479.31;5361774;32;34445;-90
2022/05/01 14:00:18;;;;;;;4.37;2.50;;;;;;;25.54;21.73;100472.47;5387657;32;33921;-95
2022/05/01 14:03:24;;;;;;;4.22;2.90;;;;;;;25.70;21.37;100474.47;5370894;32;37400;-90
2022/05/01 14:06:27;;;;;;;8.48;2.90;;;;;;;25.32;21.70;100479.16;5369069;32;36373;-92
2022/05/01 14:09:30;;;;;;;5.35;2.90;;;;;;;25.97;20.66;100478.91;5391769;32;35402;-96
2022/05/01 14:12:32;;;;;;;5.70;3.20;;;;;;;24.47;22.05;100463.31;5359286;32;33192;-94
2022/05/01 14:15:37;;;;;;;4.62;2.80;;;;;;;25.27;21.36;100467.16;5354052;32;33366;-96
2022/05/01 14:18:41;;;;;;;4.72;2.78;;;;;;;25.22;21.16;100472.16;5374922;32;36975;-93
2022/05/01 14:21:46;;;;;;;5.18;2.70;;;;;;;24.36;22.57;100463.53;5373328;32;33825;-94
2022/05/01 14:25:09;;;;;;;6.07;2.80;;;;;;;24.31;22.19;100467.44;5381811;32;35174;-94
2022/05/01 14:28:12;;;;;;;6.72;3.10;;;;;;;24.19;22.22;100465.09;5370331;32;45600;-91
2022/05/01 14:31:35;;;;;;;;;;;;;;;23.93;22.70;100463.03;5379550;32;34907;-93
2022/05/01 14:34:42;;;;;;;4.35;2.70;;;;;;;23.92;22.76;100469.38;5396468;32;33169;-93
2022/05/01 14:37:54;;;;;;;6.65;2.70;;;;;;;24.37;21.77;100460.69;5373778;32;44577;-95
2022/05/01 14:41:03;;;;;;;5.15;2.80;;;;;;;24.90;20.94;100451.94;5387269;32;35938;-95
2022/05/01 14:44:12;;;;;;;6.82;2.92;;;;;;;23.92;22.43;100442.56;5380320;32;43247;-90
2022/05/01 14:47:26;;;;;;;6.43;2.60;;;;;;;23.66;22.76;100446.84;5389473;32;34748;-92
2022/05/01 14:50:30;;;;;;;4.78;3.03;;;;;;;24.95;21.49;100432.69;5392732;32;36975;-90
2022/05/01 14:53:33;;;;;;;6.55;3.00;;;;;;;24.82;21.68;100438.41;5379104;32;33940;-89
2022/05/01 14:56:37;;;;;;;5.68;3.10;;;;;;;25.06;21.61;100445.94;5395870;32;35639;-96
2022/05/01 15:06:35;;;;;;;6.68;2.85;;;;;;;24.07;23.07;100436.72;5390346;32;36144;-91
2022/05/01 15:09:39;;;;;;;7.03;3.72;;;;;;;23.59;23.69;100427.75;5380794;32;35205;-91